Time;durP1;ratioP1;P1;durP2;ratioP2;P2;SDS_P1;SDS_P2;PMS_P1;PMS_P2;Temp;Humidity;BMP_temperature;BMP_pressure;BME280_temperature;BME280_humidity;BME280_pressure;Samples;Min_cycle;Max_cycle;Signal;HPM_P1;HPM_P2
2022/11/10 00:00:26;;;;;;;21.85;2.72;;;12.50;99.90;;;;;;5074327;28;20032;-72
2022/11/10 00:02:52;;;;;;;18.50;2.92;;;12.50;99.90;;;;;;5064720;28;20028;-72
2022/11/10 00:05:17;;;;;;;18.98;2.80;;;12.70;99.90;;;;;;5066598;28;20063;-72
2022/11/10 00:07:43;;;;;;;20.15;2.75;;;12.70;99.90;;;;;;5047239;28;20036;-72
2022/11/10 00:10:09;;;;;;;17.90;2.47;;;12.70;99.90;;;;;;5065038;28;20525;-71
2022/11/10 00:12:34;;;;;;;16.85;2.55;;;12.70;99.90;;;;;;5063478;28;20090;-72
2022/11/10 00:17:44;;;;;;;20.25;2.95;;;12.80;99.90;;;;;;5065917;28;20043;-72
2022/11/10 00:20:11;;;;;;;15.13;2.10;;;12.80;99.90;;;;;;5074239;28;20024;-72
2022/11/10 00:22:38;;;;;;;23.00;2.95;;;12.70;99.90;;;;;;5064390;28;20038;-71
2022/11/10 00:25:04;;;;;;;20.63;2.85;;;12.70;99.90;;;;;;5047196;28;20086;-72
2022/11/10 00:27:31;;;;;;;21.48;2.70;;;12.70;99.90;;;;;;5043779;28;20039;-72
2022/11/10 00:29:57;;;;;;;13.82;2.42;;;12.80;99.90;;;;;;5059553;28;20032;-73
2022/11/10 00:32:23;;;;;;;19.25;2.65;;;12.80;99.90;;;;;;5066547;28;20047;-72
2022/11/10 00:34:48;;;;;;;13.43;2.20;;;12.80;99.90;;;;;;5065927;28;20040;-72
2022/11/10 00:37:14;;;;;;;18.77;2.25;;;12.80;99.90;;;;;;5047994;28;20033;-72
2022/11/10 00:39:39;;;;;;;13.93;1.90;;;12.90;99.90;;;;;;5065491;28;20040;-72
2022/11/10 00:42:06;;;;;;;12.18;2.35;;;13.00;99.90;;;;;;5064535;28;20040;-72
2022/11/10 00:44:32;;;;;;;18.67;2.22;;;13.00;99.90;;;;;;5070341;28;20028;-72
2022/11/10 00:46:57;;;;;;;19.13;2.08;;;13.00;99.90;;;;;;5069441;28;20688;-72
2022/11/10 00:49:23;;;;;;;18.48;2.55;;;13.00;99.90;;;;;;5070335;28;20158;-72
2022/11/10 00:51:49;;;;;;;17.17;2.25;;;13.00;99.90;;;;;;5070021;28;20033;-72
2022/11/10 00:54:14;;;;;;;12.68;1.75;;;13.10;99.90;;;;;;5069854;28;20036;-72
2022/11/10 00:56:40;;;;;;;15.35;2.30;;;13.10;99.90;;;;;;5070631;28;20592;-72
2022/11/10 00:59:06;;;;;;;17.25;2.00;;;13.20;99.90;;;;;;5052239;28;20025;-72
2022/11/10 01:01:32;;;;;;;16.00;2.10;;;13.20;99.90;;;;;;5070012;28;20517;-72
2022/11/10 01:03:57;;;;;;;22.75;2.85;;;13.20;99.90;;;;;;5069081;28;20041;-73
2022/11/10 01:06:23;;;;;;;16.50;2.30;;;13.20;99.90;;;;;;5057756;28;20037;-72
2022/11/10 01:08:48;;;;;;;19.40;3.13;;;13.20;99.90;;;;;;5051282;28;20036;-72
2022/11/10 01:11:19;;;;;;;19.58;2.63;;;13.30;99.90;;;;;;5046514;28;20048;-73
2022/11/10 01:13:45;;;;;;;13.57;1.65;;;13.30;99.90;;;;;;5065128;28;20031;-72
2022/11/10 01:16:14;;;;;;;14.05;1.70;;;13.40;99.90;;;;;;5068104;28;20057;-73
2022/11/10 01:18:41;;;;;;;19.10;2.25;;;13.50;99.90;;;;;;5069243;28;20032;-72
2022/11/10 01:21:07;;;;;;;15.55;2.03;;;13.40;99.90;;;;;;5068513;28;20038;-73
2022/11/10 01:23:33;;;;;;;11.63;1.75;;;13.40;99.90;;;;;;5069591;28;20032;-72
2022/11/10 01:26:02;;;;;;;13.25;1.90;;;13.40;99.90;;;;;;5067513;28;20040;-72
2022/11/10 01:28:28;;;;;;;14.90;1.65;;;13.40;99.90;;;;;;5067150;28;20526;-72
2022/11/10 01:31:01;;;;;;;12.63;1.40;;;13.50;99.90;;;;;;5067635;28;20024;-73
2022/11/10 01:33:27;;;;;;;17.05;3.00;;;13.50;99.90;;;;;;5050762;28;20437;-73
2022/11/10 01:35:54;;;;;;;12.27;1.70;;;13.40;99.90;;;;;;5066551;28;20120;-73
2022/11/10 01:38:20;;;;;;;17.35;2.83;;;13.40;99.90;;;;;;5050464;28;20140;-73
2022/11/10 01:40:46;;;;;;;14.40;2.10;;;13.40;99.90;;;;;;5068499;28;20107;-73
2022/11/10 01:43:12;;;;;;;14.95;2.22;;;13.50;99.90;;;;;;5036375;28;20144;-72
2022/11/10 01:46:02;;;;;;;14.38;2.15;;;13.50;99.90;;;;;;5053892;28;20056;-71
2022/11/10 01:48:33;;;;;;;20.73;2.20;;;13.50;99.90;;;;;;5066187;28;20035;-72
2022/11/10 01:51:08;;;;;;;13.68;1.70;;;13.50;99.90;;;;;;5042660;28;20032;-72
2022/11/10 01:53:38;;;;;;;16.05;2.10;;;13.40;99.90;;;;;;5063843;28;20124;-73
2022/11/10 01:56:05;;;;;;;;;;;13.40;99.90;;;;;;5061838;28;20039;-73
2022/11/10 01:58:38;;;;;;;16.10;1.73;;;13.40;99.90;;;;;;5064666;28;19912;-72
2022/11/10 02:01:06;;;;;;;15.88;2.08;;;13.40;99.90;;;;;;5067671;28;20025;-73
2022/11/10 02:03:39;;;;;;;17.85;2.10;;;13.40;99.90;;;;;;5065801;28;20731;-72
2022/11/10 02:06:06;;;;;;;13.63;2.13;;;13.40;99.90;;;;;;5067210;28;20021;-73
2022/11/10 02:08:32;;;;;;;15.75;2.17;;;13.40;99.90;;;;;;5061075;28;20040;-72
2022/11/10 02:10:58;;;;;;;15.60;1.80;;;13.40;99.90;;;;;;5047975;28;20108;-72
2022/11/10 02:13:24;;;;;;;11.18;1.88;;;13.40;99.90;;;;;;5064105;28;20115;-72
2022/11/10 02:15:50;;;;;;;17.08;2.28;;;13.40;99.90;;;;;;5069354;28;20067;-72
2022/11/10 02:18:15;;;;;;;15.98;2.25;;;13.50;99.90;;;;;;5082967;28;20060;-72
2022/11/10 02:20:45;;;;;;;12.95;1.70;;;13.50;99.90;;;;;;5066652;28;20123;-72
2022/11/10 02:23:34;;;;;;;13.02;1.90;;;13.60;99.90;;;;;;5061079;28;20131;-73
2022/11/10 02:26:04;;;;;;;16.08;2.17;;;13.60;99.90;;;;;;5055828;28;20473;-72
2022/11/10 02:28:37;;;;;;;16.67;2.67;;;13.60;99.90;;;;;;5064051;28;20508;-73
2022/11/10 02:31:04;;;;;;;14.05;2.03;;;13.60;99.90;;;;;;5061904;28;20048;-72
2022/11/10 02:33:30;;;;;;;14.35;2.20;;;13.70;99.90;;;;;;5063467;28;20521;-72
2022/11/10 02:35:56;;;;;;;14.52;1.85;;;13.70;99.90;;;;;;5067611;28;20024;-72
2022/11/10 02:38:22;;;;;;;12.38;2.38;;;13.80;99.90;;;;;;5068065;28;20029;-72
2022/11/10 02:40:50;;;;;;;19.05;2.17;;;13.80;99.90;;;;;;5049983;28;20025;-72
2022/11/10 02:43:18;;;;;;;11.70;1.70;;;13.90;99.90;;;;;;5067891;28;20127;-72
2022/11/10 02:45:44;;;;;;;18.15;2.38;;;13.90;99.90;;;;;;5049926;28;20029;-72
2022/11/10 02:48:11;;;;;;;12.77;1.80;;;13.90;99.90;;;;;;5068489;28;20466;-72
2022/11/10 02:50:37;;;;;;;11.60;1.52;;;13.90;99.90;;;;;;5068195;28;20032;-72
2022/11/10 02:53:03;;;;;;;13.43;1.80;;;13.80;99.90;;;;;;5049778;28;20043;-72
2022/11/10 02:55:28;;;;;;;11.93;1.80;;;13.70;99.90;;;;;;5050143;28;20031;-70
2022/11/10 02:57:54;;;;;;;13.95;1.30;;;13.70;99.90;;;;;;5068523;28;20045;-72
2022/11/10 03:00:20;;;;;;;12.45;2.13;;;13.70;99.90;;;;;;5049431;28;20068;-72
2022/11/10 03:02:45;;;;;;;14.90;2.35;;;13.70;99.90;;;;;;5067254;28;20060;-72
2022/11/10 03:05:11;;;;;;;14.15;2.33;;;13.60;99.90;;;;;;5066432;28;20090;-72
2022/11/10 03:07:37;;;;;;;12.02;1.90;;;13.60;99.90;;;;;;5066631;28;20216;-72
2022/11/10 03:10:04;;;;;;;12.60;2.15;;;13.60;99.90;;;;;;5062584;28;20036;-72
2022/11/10 03:12:30;;;;;;;13.95;1.83;;;13.60;99.90;;;;;;5065307;28;20376;-72
2022/11/10 03:14:55;;;;;;;14.55;1.85;;;13.70;99.90;;;;;;5065075;28;20090;-72
2022/11/10 03:17:21;;;;;;;12.63;1.58;;;13.70;99.90;;;;;;5064324;28;20746;-72
2022/11/10 03:19:48;;;;;;;14.40;1.60;;;13.70;99.90;;;;;;5064656;28;20044;-72
2022/11/10 03:22:14;;;;;;;17.55;2.53;;;13.80;99.90;;;;;;5065893;28;20032;-72
2022/11/10 03:24:39;;;;;;;12.90;1.58;;;13.80;99.90;;;;;;5047903;28;20050;-72
2022/11/10 03:27:05;;;;;;;10.10;1.40;;;13.70;99.90;;;;;;5065581;28;20568;-72
2022/11/10 03:29:31;;;;;;;14.65;2.35;;;13.80;99.90;;;;;;5065908;28;20074;-72
2022/11/10 03:31:56;;;;;;;9.27;1.52;;;13.80;99.90;;;;;;5065760;28;20551;-72
2022/11/10 03:34:22;;;;;;;17.40;2.00;;;13.80;99.90;;;;;;5047877;28;20029;-72
2022/11/10 03:36:48;;;;;;;14.93;2.10;;;13.90;99.90;;;;;;5047779;28;20050;-72
2022/11/10 03:39:13;;;;;;;12.07;1.67;;;13.90;99.90;;;;;;5065914;28;20032;-72
2022/11/10 03:41:39;;;;;;;13.38;1.60;;;13.90;99.90;;;;;;5038585;28;20044;-72
2022/11/10 03:44:05;;;;;;;15.20;1.90;;;13.90;99.90;;;;;;5047313;28;20036;-72
2022/11/10 03:46:30;;;;;;;16.60;1.98;;;13.90;99.90;;;;;;5064996;28;20071;-73
2022/11/10 03:48:56;;;;;;;15.77;2.40;;;13.90;99.90;;;;;;5065160;28;20048;-72
2022/11/10 03:51:22;;;;;;;13.65;1.63;;;13.90;99.90;;;;;;5065453;28;20040;-72
2022/11/10 03:53:47;;;;;;;14.82;2.00;;;13.90;99.90;;;;;;5047329;28;20719;-72
2022/11/10 03:56:13;;;;;;;15.57;2.58;;;13.90;99.90;;;;;;5045667;28;20055;-72
2022/11/10 03:58:40;;;;;;;11.27;2.00;;;13.90;99.90;;;;;;5064459;28;20032;-72
2022/11/10 04:01:05;;;;;;;17.02;2.30;;;14.00;99.90;;;;;;5063869;28;20111;-74
2022/11/10 04:03:31;;;;;;;13.90;2.20;;;14.00;99.90;;;;;;5064767;28;20115;-72
2022/11/10 04:09:00;;;;;;;13.70;1.80;;;14.10;99.90;;;;;;5064442;28;20043;-72
2022/11/10 04:16:59;;;;;;;14.88;1.95;;;14.00;99.90;;;;;;5062827;28;20560;-71
2022/11/10 04:19:25;;;;;;;13.02;1.88;;;14.00;99.90;;;;;;5066259;28;20111;-71
2022/11/10 04:21:51;;;;;;;10.93;1.73;;;14.00;99.90;;;;;;5063679;28;20037;-71
2022/11/10 04:24:16;;;;;;;16.63;1.90;;;14.10;99.90;;;;;;5037180;28;20693;-70
2022/11/10 04:26:43;;;;;;;16.20;1.88;;;14.10;99.90;;;;;;5065349;28;20189;-72
2022/11/10 04:29:10;;;;;;;11.07;1.80;;;14.10;99.90;;;;;;5065080;28;20084;-71
2022/11/10 04:31:38;;;;;;;11.13;1.65;;;14.10;99.90;;;;;;5045504;28;20110;-72
2022/11/10 04:34:05;;;;;;;14.45;2.30;;;14.10;99.90;;;;;;5040254;28;20465;-73
2022/11/10 04:36:33;;;;;;;15.80;1.70;;;14.20;99.90;;;;;;5062978;28;20573;-73
2022/11/10 04:38:58;;;;;;;16.27;1.95;;;14.10;99.90;;;;;;5045080;28;20471;-73
2022/11/10 04:41:26;;;;;;;14.65;2.35;;;14.20;99.90;;;;;;5063784;28;20055;-73
2022/11/10 04:43:52;;;;;;;15.00;1.65;;;14.20;99.90;;;;;;5064910;28;20442;-72
2022/11/10 04:46:25;;;;;;;14.52;1.83;;;14.20;99.90;;;;;;5066184;28;20051;-73
2022/11/10 04:48:51;;;;;;;13.30;2.10;;;14.20;99.90;;;;;;5065955;28;20737;-73
2022/11/10 04:51:18;;;;;;;13.25;1.63;;;14.20;99.90;;;;;;5048580;28;20110;-72
2022/11/10 04:53:44;;;;;;;14.77;1.60;;;14.20;99.90;;;;;;5048009;28;20123;-72
2022/11/10 04:56:14;;;;;;;13.70;1.58;;;14.20;99.90;;;;;;5047899;28;20140;-72
2022/11/10 04:58:40;;;;;;;14.75;2.15;;;14.20;99.90;;;;;;5066032;28;20713;-72
2022/11/10 05:01:05;;;;;;;10.10;1.92;;;14.10;99.90;;;;;;5047321;28;20032;-72
2022/11/10 05:03:31;;;;;;;9.57;1.90;;;14.10;99.90;;;;;;5065763;28;20036;-72
2022/11/10 05:05:56;;;;;;;14.15;2.50;;;14.10;99.90;;;;;;5048276;28;20566;-72
2022/11/10 05:08:22;;;;;;;15.25;2.20;;;14.10;99.90;;;;;;5066509;28;20040;-72
2022/11/10 05:10:47;;;;;;;15.13;2.30;;;14.10;99.90;;;;;;5066743;28;20042;-73
2022/11/10 05:13:13;;;;;;;16.70;2.90;;;14.00;99.90;;;;;;5063377;28;20116;-73
2022/11/10 05:15:40;;;;;;;18.38;2.28;;;14.00;99.90;;;;;;5045877;28;20395;-73
2022/11/10 05:18:06;;;;;;;15.85;2.03;;;14.00;99.90;;;;;;5046005;28;20028;-72
2022/11/10 05:20:32;;;;;;;17.45;2.13;;;14.00;99.90;;;;;;5061798;28;20626;-73
2022/11/10 05:25:43;;;;;;;14.57;1.60;;;14.00;99.90;;;;;;5053036;28;20039;-72
2022/11/10 05:28:11;;;;;;;11.38;2.08;;;14.10;99.90;;;;;;5058295;28;20029;-72
2022/11/10 05:30:38;;;;;;;16.58;2.00;;;14.00;99.90;;;;;;5063977;28;20035;-73
2022/11/10 05:33:04;;;;;;;16.50;2.00;;;14.10;99.90;;;;;;5066454;28;20039;-72
2022/11/10 05:35:31;;;;;;;13.85;2.13;;;14.10;99.90;;;;;;5063601;28;20133;-72
2022/11/10 05:37:56;;;;;;;16.90;2.50;;;14.10;99.90;;;;;;5049489;28;20029;-71
2022/11/10 05:40:22;;;;;;;11.07;1.83;;;14.00;99.90;;;;;;5067321;28;20034;-73
2022/11/10 05:42:52;;;;;;;14.15;1.95;;;14.00;99.90;;;;;;5067818;28;20036;-72
2022/11/10 05:45:22;;;;;;;;;;;14.00;99.90;;;;;;5048862;28;20031;-73
2022/11/10 05:47:48;;;;;;;;;;;14.00;99.90;;;;;;5068931;28;19916;-73
2022/11/10 05:50:14;;;;;;;15.93;2.85;;;14.00;99.90;;;;;;5066095;28;20345;-74
2022/11/10 05:52:44;;;;;;;15.38;2.15;;;13.90;99.90;;;;;;5047712;28;20063;-73
2022/11/10 05:55:09;;;;;;;18.05;2.38;;;13.90;99.90;;;;;;5057093;28;20555;-73
2022/11/10 05:57:35;;;;;;;17.08;1.90;;;13.80;99.90;;;;;;5050849;28;20029;-73
2022/11/10 06:00:03;;;;;;;21.33;2.30;;;13.80;99.90;;;;;;5077438;28;20040;-73
2022/11/10 06:02:28;;;;;;;15.35;2.33;;;13.80;99.90;;;;;;5063554;28;20039;-72
2022/11/10 06:04:54;;;;;;;16.58;2.72;;;13.70;99.90;;;;;;5065525;28;20028;-73
2022/11/10 06:07:19;;;;;;;16.85;2.33;;;13.70;99.90;;;;;;5066978;28;20064;-73
2022/11/10 06:09:47;;;;;;;20.90;2.15;;;13.70;99.90;;;;;;5068467;28;20505;-72
2022/11/10 06:12:13;;;;;;;14.55;2.15;;;13.80;99.90;;;;;;5067817;28;20555;-73
2022/11/10 06:14:39;;;;;;;17.27;2.15;;;13.80;99.90;;;;;;5066477;28;20831;-73
2022/11/10 06:17:04;;;;;;;22.02;2.72;;;13.90;99.90;;;;;;5067820;28;20064;-73
2022/11/10 06:19:30;;;;;;;17.17;2.40;;;13.90;99.90;;;;;;5066386;28;20056;-73
2022/11/10 06:21:55;;;;;;;18.25;2.47;;;13.90;99.90;;;;;;5051082;28;20072;-71
2022/11/10 06:24:21;;;;;;;14.95;2.15;;;13.90;99.90;;;;;;5068812;28;20478;-73
2022/11/10 06:26:47;;;;;;;14.80;2.20;;;13.90;99.90;;;;;;5068542;28;20387;-73
2022/11/10 06:29:12;;;;;;;13.55;2.22;;;13.90;99.90;;;;;;5068258;28;20041;-74
2022/11/10 06:31:38;;;;;;;11.45;1.63;;;13.90;99.90;;;;;;5067411;28;20079;-73
2022/11/10 06:34:03;;;;;;;17.30;2.63;;;13.70;99.90;;;;;;5065843;28;20756;-73
2022/11/10 06:36:29;;;;;;;18.17;2.78;;;13.70;99.90;;;;;;5068519;28;20036;-73
2022/11/10 06:38:54;;;;;;;16.55;2.20;;;13.70;99.90;;;;;;5068446;28;20060;-73
2022/11/10 06:41:20;;;;;;;17.38;2.05;;;13.60;99.90;;;;;;5067200;28;20024;-73
2022/11/10 06:43:45;;;;;;;22.90;2.67;;;13.60;99.90;;;;;;5068363;28;20103;-73
2022/11/10 06:46:11;;;;;;;18.20;2.45;;;13.60;99.90;;;;;;5068043;28;20039;-73
2022/11/10 06:48:37;;;;;;;10.95;1.77;;;13.60;99.90;;;;;;5068018;28;20059;-73
2022/11/10 06:51:02;;;;;;;17.85;2.70;;;13.60;99.90;;;;;;5075476;28;20042;-72
2022/11/10 06:53:28;;;;;;;13.70;1.98;;;13.60;99.90;;;;;;5069930;28;20037;-73
2022/11/10 06:55:54;;;;;;;16.23;1.92;;;13.50;99.90;;;;;;5067446;28;20584;-72
2022/11/10 06:58:19;;;;;;;16.13;1.92;;;13.50;99.90;;;;;;5068143;28;20032;-73
2022/11/10 07:00:45;;;;;;;17.98;2.20;;;13.50;99.90;;;;;;5067813;28;20750;-72
2022/11/10 07:03:14;;;;;;;14.57;2.35;;;13.50;99.90;;;;;;5065765;28;20090;-74
2022/11/10 07:05:40;;;;;;;16.38;2.55;;;13.50;99.90;;;;;;5063268;28;20402;-71
2022/11/10 07:08:08;;;;;;;19.75;2.67;;;13.40;99.90;;;;;;5066690;28;20410;-73
2022/11/10 07:10:35;;;;;;;18.63;2.38;;;13.50;99.90;;;;;;5065791;28;20040;-71
2022/11/10 07:13:02;;;;;;;18.88;2.17;;;13.40;99.90;;;;;;5057846;28;20028;-73
2022/11/10 07:15:29;;;;;;;17.50;2.80;;;13.50;99.90;;;;;;5049476;28;20517;-73
2022/11/10 07:17:55;;;;;;;14.13;2.10;;;13.50;99.90;;;;;;5067653;28;20033;-73
2022/11/10 07:20:21;;;;;;;14.95;2.17;;;13.60;99.90;;;;;;5046941;28;20125;-72
2022/11/10 07:22:47;;;;;;;16.80;2.00;;;13.60;99.90;;;;;;5048391;28;20040;-72
2022/11/10 07:25:12;;;;;;;12.90;2.20;;;13.70;99.90;;;;;;5047745;28;20456;-73
2022/11/10 07:27:38;;;;;;;14.25;1.70;;;13.70;99.90;;;;;;5064030;28;20453;-73
2022/11/10 07:30:04;;;;;;;12.98;1.90;;;13.80;99.90;;;;;;5064193;28;20060;-73
2022/11/10 07:32:30;;;;;;;14.70;1.85;;;13.80;99.90;;;;;;5044061;28;20363;-73
2022/11/10 07:34:56;;;;;;;15.00;2.00;;;13.80;99.90;;;;;;5064982;28;20501;-72
2022/11/10 07:37:21;;;;;;;12.32;1.95;;;13.90;99.90;;;;;;5047241;28;20394;-74
2022/11/10 07:39:47;;;;;;;16.73;3.00;;;13.90;99.90;;;;;;5064897;28;20078;-73
2022/11/10 07:42:12;;;;;;;15.10;2.13;;;13.90;99.90;;;;;;5047290;28;20036;-73
2022/11/10 07:44:38;;;;;;;13.82;2.13;;;14.00;99.90;;;;;;5065691;28;20424;-73
2022/11/10 07:47:03;;;;;;;15.15;2.35;;;14.10;99.90;;;;;;5065319;28;20052;-72
2022/11/10 07:49:29;;;;;;;14.63;1.83;;;14.20;99.90;;;;;;5065655;28;20595;-73
2022/11/10 07:51:54;;;;;;;14.43;1.98;;;14.30;99.90;;;;;;5067551;28;20036;-72
2022/11/10 07:54:20;;;;;;;11.98;1.83;;;14.40;99.90;;;;;;5045604;28;20112;-73
2022/11/10 07:56:46;;;;;;;11.23;1.60;;;14.60;99.90;;;;;;5067280;28;20036;-73
2022/11/10 07:59:12;;;;;;;12.73;1.73;;;14.70;99.90;;;;;;5043103;28;20033;-72
2022/11/10 08:01:37;;;;;;;9.95;1.35;;;14.80;99.90;;;;;;5064331;28;20545;-72
2022/11/10 08:04:03;;;;;;;15.23;2.17;;;15.00;99.90;;;;;;5063826;28;20032;-72
2022/11/10 08:06:29;;;;;;;14.05;2.63;;;15.10;99.90;;;;;;5049828;28;20032;-73
2022/11/10 08:08:55;;;;;;;15.52;2.45;;;15.20;99.90;;;;;;5062932;28;20052;-73
2022/11/10 08:11:20;;;;;;;12.63;1.85;;;15.30;99.90;;;;;;5065554;28;21301;-72
2022/11/10 08:13:46;;;;;;;14.40;1.73;;;15.40;99.90;;;;;;5069511;28;20098;-72
2022/11/10 08:16:11;;;;;;;16.20;2.78;;;15.50;99.90;;;;;;5063661;28;20558;-73
2022/11/10 08:18:37;;;;;;;13.85;2.00;;;15.50;99.90;;;;;;5060385;28;20025;-72
2022/11/10 08:21:03;;;;;;;15.18;2.08;;;15.50;99.90;;;;;;5060584;28;20059;-72
2022/11/10 08:23:29;;;;;;;13.20;1.90;;;15.50;99.90;;;;;;5060847;28;20040;-73
2022/11/10 08:25:59;;;;;;;16.48;2.10;;;15.30;99.90;;;;;;5046877;28;20082;-74
2022/11/10 08:28:25;;;;;;;;;;;15.20;99.90;;;;;;5064114;28;20108;-73
2022/11/10 08:30:51;;;;;;;12.82;1.67;;;15.10;99.90;;;;;;5065567;28;19919;-72
2022/11/10 08:33:18;;;;;;;13.88;2.28;;;15.00;99.90;;;;;;5067823;28;20032;-72
2022/11/10 08:35:46;;;;;;;11.55;2.08;;;15.10;99.90;;;;;;5047996;28;20086;-72
2022/11/10 08:38:18;;;;;;;14.40;2.00;;;15.30;99.90;;;;;;5046948;28;20098;-73
2022/11/10 08:40:44;;;;;;;15.25;2.25;;;15.40;99.90;;;;;;5046758;28;20075;-73
2022/11/10 08:43:10;;;;;;;15.20;1.88;;;15.50;99.90;;;;;;5065058;28;20695;-73
2022/11/10 08:45:38;;;;;;;18.17;2.30;;;15.50;99.90;;;;;;5065143;28;20390;-73
2022/11/10 08:48:06;;;;;;;17.55;2.17;;;15.50;99.90;;;;;;5057321;28;20083;-72
2022/11/10 08:50:32;;;;;;;14.98;2.13;;;15.50;99.90;;;;;;5057985;28;20029;-72
2022/11/10 08:53:02;;;;;;;17.00;2.20;;;15.40;99.90;;;;;;5062829;28;20032;-73
2022/11/10 08:55:28;;;;;;;12.82;2.03;;;15.30;99.90;;;;;;5039047;28;20106;-73
2022/11/10 08:58:01;;;;;;;12.75;2.20;;;15.20;99.90;;;;;;5062194;28;20094;-73
2022/11/10 09:00:28;;;;;;;12.10;1.88;;;15.10;99.90;;;;;;5067414;28;20032;-72
2022/11/10 09:02:55;;;;;;;17.92;2.08;;;15.30;99.90;;;;;;5066047;28;20494;-71
2022/11/10 09:05:21;;;;;;;14.15;1.90;;;15.40;99.90;;;;;;5066850;28;20733;-71
2022/11/10 09:07:48;;;;;;;17.77;2.22;;;15.40;99.90;;;;;;5066036;28;20040;-71
2022/11/10 09:10:14;;;;;;;13.35;1.95;;;15.20;99.90;;;;;;5043991;28;20054;-71
2022/11/10 09:12:41;;;;;;;15.32;2.00;;;15.10;99.90;;;;;;5068143;28;20032;-71
2022/11/10 09:15:08;;;;;;;11.55;1.90;;;14.90;99.90;;;;;;5069412;28;20028;-72
2022/11/10 09:17:35;;;;;;;12.68;2.30;;;14.90;99.90;;;;;;5078054;28;20029;-71
2022/11/10 09:20:00;;;;;;;16.38;2.15;;;14.90;99.90;;;;;;5069115;28;20039;-72
2022/11/10 09:22:26;;;;;;;13.35;2.20;;;14.80;99.90;;;;;;5070022;28;20041;-71
2022/11/10 09:24:52;;;;;;;15.85;2.67;;;14.80;99.90;;;;;;5068011;28;20043;-71
2022/11/10 09:27:18;;;;;;;11.70;1.95;;;14.80;99.90;;;;;;5073112;28;20032;-77
2022/11/10 09:29:43;;;;;;;12.00;1.75;;;14.80;99.90;;;;;;5065799;28;20036;-77
2022/11/10 09:32:09;;;;;;;12.55;2.15;;;14.80;99.90;;;;;;5062451;28;20542;-75
2022/11/10 09:34:34;;;;;;;11.27;1.67;;;14.90;99.90;;;;;;5047971;28;20028;-77
2022/11/10 09:37:00;;;;;;;9.20;1.40;;;15.00;99.90;;;;;;5067441;28;20036;-76
2022/11/10 09:39:26;;;;;;;12.35;2.03;;;15.10;99.90;;;;;;5049965;28;20032;-77
2022/11/10 09:41:52;;;;;;;13.63;1.80;;;15.30;99.90;;;;;;5067680;28;20037;-75
2022/11/10 09:44:21;;;;;;;15.88;2.00;;;15.30;99.90;;;;;;5069725;28;20111;-77
2022/11/10 09:47:12;;;;;;;13.73;1.75;;;15.30;99.90;;;;;;5056552;28;20025;-75
2022/11/10 09:49:57;;;;;;;11.65;1.60;;;15.30;99.90;;;;;;5056792;28;20052;-75
2022/11/10 09:52:25;;;;;;;19.88;2.17;;;15.20;99.90;;;;;;5050194;28;20047;-74
2022/11/10 09:55:30;;;;;;;18.42;2.88;;;15.20;99.90;;;;;;5068908;28;20028;-77
2022/11/10 09:57:57;;;;;;;14.77;2.20;;;15.20;99.90;;;;;;5004984;28;20045;-75
2022/11/10 10:00:23;;;;;;;14.38;2.05;;;15.10;99.90;;;;;;5004589;28;20038;-77
2022/11/10 10:02:54;;;;;;;8.57;1.40;;;15.10;99.90;;;;;;5035630;28;20054;-75
2022/11/10 10:05:32;;;;;;;10.55;2.53;;;15.00;99.90;;;;;;5071786;28;20086;-75
2022/11/10 10:08:28;;;;;;;12.93;2.17;;;15.00;99.90;;;;;;5067773;28;20059;-75
2022/11/10 10:11:09;;;;;;;12.85;2.00;;;15.00;99.90;;;;;;5020500;28;20125;-76
2022/11/10 10:14:11;;;;;;;12.68;1.55;;;15.00;99.90;;;;;;5059664;28;20123;-73
2022/11/10 10:16:45;;;;;;;12.02;1.88;;;15.10;99.90;;;;;;5050048;28;20135;-75
2022/11/10 10:19:23;;;;;;;13.27;1.98;;;15.40;99.90;;;;;;5048896;28;20032;-75
2022/11/10 10:21:48;;;;;;;13.05;1.98;;;15.60;99.90;;;;;;5067907;28;20042;-73
2022/11/10 10:24:20;;;;;;;11.70;1.55;;;15.80;99.90;;;;;;5059956;28;20037;-72
2022/11/10 10:26:54;;;;;;;10.98;2.00;;;16.00;99.90;;;;;;5068565;28;20048;-74
2022/11/10 10:29:26;;;;;;;9.50;1.60;;;16.10;99.90;;;;;;5067238;28;20493;-72
2022/11/10 10:31:53;;;;;;;10.63;2.00;;;16.20;99.90;;;;;;5066863;28;20036;-70
2022/11/10 10:34:29;;;;;;;12.88;1.80;;;16.40;99.90;;;;;;5044137;28;20039;-69
2022/11/10 10:36:55;;;;;;;14.63;2.42;;;16.40;99.90;;;;;;5065560;28;20494;-71
2022/11/10 10:39:36;;;;;;;14.15;2.10;;;16.50;99.90;;;;;;5067229;28;20032;-70
2022/11/10 10:42:12;;;;;;;15.73;2.40;;;16.50;99.90;;;;;;5048752;28;20064;-70
2022/11/10 10:44:38;;;;;;;10.70;2.00;;;16.60;99.90;;;;;;5068088;28;20107;-70
2022/11/10 10:47:04;;;;;;;14.20;1.83;;;16.60;99.90;;;;;;5067928;28;20141;-71
2022/11/10 10:49:32;;;;;;;12.93;2.00;;;16.70;99.90;;;;;;5068178;28;20652;-72
2022/11/10 10:52:09;;;;;;;13.93;1.95;;;16.80;99.90;;;;;;5068393;28;20035;-71
2022/11/10 10:54:37;;;;;;;10.80;1.75;;;16.90;99.90;;;;;;5064797;28;20067;-72
2022/11/10 10:57:04;;;;;;;14.05;2.10;;;17.10;99.90;;;;;;5066125;28;20020;-70
2022/11/10 10:59:31;;;;;;;12.73;2.25;;;17.20;99.90;;;;;;5063882;28;20735;-70
2022/11/10 11:01:56;;;;;;;9.23;1.48;;;17.70;99.90;;;;;;5041866;28;20600;-75
2022/11/10 11:04:34;;;;;;;12.38;2.00;;;18.20;99.90;;;;;;5033547;28;20033;-78
2022/11/10 11:07:05;;;;;;;12.85;1.85;;;18.50;99.90;;;;;;5065724;28;20477;-74
2022/11/10 11:09:40;;;;;;;13.90;1.77;;;18.20;99.90;;;;;;5047165;28;20732;-74
2022/11/10 11:12:12;;;;;;;13.43;2.22;;;17.80;99.90;;;;;;5050448;28;20036;-75
2022/11/10 11:14:37;;;;;;;13.38;2.00;;;17.50;99.90;;;;;;5066753;28;20760;-74
2022/11/10 11:17:13;;;;;;;12.88;1.77;;;17.40;99.90;;;;;;5060510;28;20051;-75
2022/11/10 11:19:39;;;;;;;12.35;1.88;;;17.20;99.90;;;;;;5059740;28;20083;-72
2022/11/10 11:22:44;;;;;;;15.05;2.00;;;17.10;99.90;;;;;;5066988;28;20044;-76
2022/11/10 11:25:25;;;;;;;13.52;1.83;;;17.10;99.90;;;;;;5063413;28;20032;-74
2022/11/10 11:28:21;;;;;;;13.00;1.90;;;17.00;99.90;;;;;;5062135;28;20035;-75
2022/11/10 11:31:10;;;;;;;13.10;1.58;;;16.80;99.90;;;;;;5040652;28;20032;-76
2022/11/10 11:33:49;;;;;;;11.80;1.70;;;16.70;99.90;;;;;;5063023;28;20044;-76
2022/11/10 11:36:22;;;;;;;11.02;1.67;;;16.60;99.90;;;;;;5063082;28;20029;-75
2022/11/10 11:39:00;;;;;;;12.57;2.15;;;16.60;99.90;;;;;;5064331;28;20474;-75
2022/11/10 11:41:28;;;;;;;15.70;2.20;;;16.60;99.90;;;;;;5066229;28;20036;-75
2022/11/10 11:44:20;;;;;;;14.80;1.77;;;16.80;99.90;;;;;;5065587;28;20067;-74
2022/11/10 11:47:04;;;;;;;13.27;2.13;;;16.90;99.90;;;;;;5017756;28;20036;-77
2022/11/10 11:49:42;;;;;;;14.13;2.55;;;17.00;99.90;;;;;;5040808;28;20044;-75
2022/11/10 11:52:26;;;;;;;12.80;1.83;;;17.00;99.90;;;;;;5065788;28;20569;-74
2022/11/10 11:55:20;;;;;;;18.90;2.58;;;17.00;99.90;;;;;;5057559;28;20106;-70
2022/11/10 11:58:07;;;;;;;12.20;1.75;;;16.90;99.90;;;;;;5065355;28;20055;-70
2022/11/10 12:00:52;;;;;;;12.75;2.28;;;16.90;99.90;;;;;;5065199;28;20619;-71
2022/11/10 12:03:23;;;;;;;10.68;1.58;;;16.80;99.90;;;;;;5045771;28;20486;-70
2022/11/10 12:06:16;;;;;;;13.07;2.72;;;16.60;99.90;;;;;;5066430;28;20029;-71
2022/11/10 12:09:06;;;;;;;17.35;2.42;;;16.40;99.90;;;;;;5064983;28;20099;-70
2022/11/10 12:11:41;;;;;;;;;;;16.20;99.90;;;;;;5045245;28;20025;-70
2022/11/10 12:14:21;;;;;;;10.63;2.15;;;16.00;99.90;;;;;;5059885;28;19947;-70
2022/11/10 12:17:25;;;;;;;14.50;2.38;;;15.90;99.90;;;;;;5039261;28;20036;-69
2022/11/10 12:20:35;;;;;;;9.48;1.48;;;15.80;99.90;;;;;;4993719;28;20122;-70
2022/11/10 12:23:03;;;;;;;13.95;1.75;;;15.70;99.90;;;;;;4982466;28;20130;-69
2022/11/10 12:25:55;;;;;;;12.98;2.13;;;15.60;99.90;;;;;;4995166;28;20061;-69
2022/11/10 12:28:30;;;;;;;14.30;1.73;;;15.50;99.90;;;;;;5031864;28;20518;-68
2022/11/10 12:31:00;;;;;;;19.85;2.65;;;15.50;99.90;;;;;;5045641;28;20032;-71
2022/11/10 12:33:25;;;;;;;14.80;2.03;;;15.40;99.90;;;;;;5065529;28;20024;-69
2022/11/10 12:35:53;;;;;;;16.98;2.25;;;15.40;99.90;;;;;;5045692;28;20446;-74
2022/11/10 12:38:26;;;;;;;15.68;2.08;;;15.40;99.90;;;;;;5045308;28;20025;-77
2022/11/10 12:41:00;;;;;;;16.40;2.47;;;15.40;99.90;;;;;;5028506;28;20115;-74
2022/11/10 12:43:32;;;;;;;19.95;2.70;;;15.50;99.90;;;;;;5062271;28;20044;-74
2022/11/10 12:46:02;;;;;;;18.30;2.63;;;15.60;99.90;;;;;;5044589;28;20025;-76
2022/11/10 12:48:35;;;;;;;16.92;2.65;;;15.70;99.90;;;;;;5051524;28;20028;-75
2022/11/10 12:51:21;;;;;;;12.02;2.10;;;15.70;99.90;;;;;;5052768;28;20039;-74
2022/11/10 12:53:48;;;;;;;18.83;2.92;;;15.60;99.90;;;;;;5046207;28;20043;-76
2022/11/10 12:56:50;;;;;;;12.73;1.92;;;15.60;99.90;;;;;;5055856;28;20031;-75
2022/11/10 12:59:19;;;;;;;12.75;2.17;;;15.60;99.90;;;;;;5053176;28;20035;-74
2022/11/10 13:01:46;;;;;;;15.32;2.70;;;15.50;99.90;;;;;;5034966;28;20040;-74